TimeEDT,TemperatureF,Dew PointF,Humidity,Sea Level PressureIn,VisibilityMPH,Wind Direction,Wind SpeedMPH,Gust SpeedMPH,PrecipitationIn,Events,Conditions,WindDirDegrees,DateUTC
12:24 AM,46.4,42.8,87,30.39,10.0,North,3.5,-,N/A,,Scattered Clouds,10,2013-10-14 04:24:00
12:36 AM,46.4,42.8,87,30.39,10.0,NNE,3.5,-,N/A,,Mostly Cloudy,20,2013-10-14 04:36:00
12:53 AM,46.0,42.1,86,30.39,10.0,North,3.5,-,N/A,,Overcast,360,2013-10-14 04:53:00
1:37 AM,46.4,42.8,87,30.38,10.0,North,4.6,-,N/A,,Scattered Clouds,10,2013-10-14 05:37:00
1:53 AM,45.0,41.0,86,30.38,10.0,North,3.5,-,N/A,,Clear,10,2013-10-14 05:53:00
2:53 AM,43.0,39.9,89,30.35,10.0,NE,6.9,-,N/A,,Clear,40,2013-10-14 06:53:00
3:53 AM,45.0,42.1,90,30.35,10.0,NE,5.8,-,N/A,,Clear,50,2013-10-14 07:53:00
4:53 AM,44.1,41.0,89,30.35,10.0,North,3.5,-,N/A,,Clear,10,2013-10-14 08:53:00
5:53 AM,43.0,41.0,93,30.35,10.0,North,4.6,-,N/A,,Clear,10,2013-10-14 09:53:00
6:53 AM,44.1,41.0,89,30.35,10.0,ENE,5.8,-,N/A,,Clear,60,2013-10-14 10:53:00
7:53 AM,50.0,45.0,83,30.37,10.0,NNW,5.8,-,N/A,,Clear,330,2013-10-14 11:53:00
8:53 AM,55.9,46.9,72,30.37,10.0,East,4.6,-,N/A,,Clear,80,2013-10-14 12:53:00
9:53 AM,57.9,45.0,62,30.35,10.0,East,6.9,-,N/A,,Clear,80,2013-10-14 13:53:00
10:53 AM,59.0,43.0,55,30.35,10.0,Variable,3.5,-,N/A,,Clear,0,2013-10-14 14:53:00
11:53 AM,61.0,43.0,52,30.34,10.0,Variable,4.6,-,N/A,,Clear,0,2013-10-14 15:53:00
12:53 PM,61.0,44.1,54,30.31,10.0,Variable,3.5,-,N/A,,Clear,0,2013-10-14 16:53:00
1:53 PM,60.1,45.0,57,30.30,10.0,SE,10.4,-,N/A,,Clear,140,2013-10-14 17:53:00
2:53 PM,59.0,46.9,64,30.29,10.0,SE,10.4,-,N/A,,Clear,130,2013-10-14 18:53:00
3:53 PM,57.9,48.9,72,30.28,10.0,East,5.8,-,N/A,,Clear,100,2013-10-14 19:53:00
4:53 PM,57.9,48.9,72,30.28,10.0,ESE,4.6,-,N/A,,Clear,110,2013-10-14 20:53:00
5:53 PM,53.1,48.0,83,30.28,10.0,East,4.6,-,N/A,,Clear,90,2013-10-14 21:53:00
6:53 PM,51.1,48.0,89,30.29,10.0,East,4.6,-,N/A,,Clear,100,2013-10-14 22:53:00
7:53 PM,50.0,46.9,89,30.29,10.0,NNE,4.6,-,N/A,,Clear,20,2013-10-14 23:53:00
8:53 PM,48.0,46.0,93,30.29,10.0,ENE,3.5,-,N/A,,Clear,60,2013-10-15 00:53:00
9:53 PM,51.1,48.9,92,30.29,10.0,East,6.9,-,N/A,,Clear,80,2013-10-15 01:53:00
10:53 PM,48.0,46.9,96,30.29,10.0,ENE,4.6,-,N/A,,Clear,70,2013-10-15 02:53:00
11:53 PM,48.0,46.9,96,30.27,10.0,ENE,4.6,-,N/A,,Clear,70,2013-10-15 03:53:00